sensor_id;sensor_type;location;lat;lon;timestamp;temperature;humidity
25438;DHT22;13364;49.084;9.978;2023-10-19T20:49:41;14.20;96.70
25438;DHT22;13364;49.084;9.978;2023-10-19T20:52:11;14.20;96.90
25438;DHT22;13364;49.084;9.978;2023-10-19T20:54:38;14.10;96.90
25438;DHT22;13364;49.084;9.978;2023-10-19T20:57:05;14.10;97.00
25438;DHT22;13364;49.084;9.978;2023-10-19T20:59:32;14.10;97.00
25438;DHT22;13364;49.084;9.978;2023-10-19T21:01:59;14.10;97.10
25438;DHT22;13364;49.084;9.978;2023-10-19T21:04:27;14.10;97.10
25438;DHT22;13364;49.084;9.978;2023-10-19T21:06:55;14.10;97.10
25438;DHT22;13364;49.084;9.978;2023-10-19T21:09:22;14.10;97.10
25438;DHT22;13364;49.084;9.978;2023-10-19T21:11:50;14.10;97.00
25438;DHT22;13364;49.084;9.978;2023-10-19T21:14:17;14.10;96.90
25438;DHT22;13364;49.084;9.978;2023-10-19T21:16:44;14.10;96.80
25438;DHT22;13364;49.084;9.978;2023-10-19T21:19:11;14.20;96.60
25438;DHT22;13364;49.084;9.978;2023-10-19T21:21:58;14.10;96.70
25438;DHT22;13364;49.084;9.978;2023-10-19T21:24:25;14.10;96.70
25438;DHT22;13364;49.084;9.978;2023-10-19T21:26:52;14.10;96.70
25438;DHT22;13364;49.084;9.978;2023-10-19T21:29:19;14.10;96.70
25438;DHT22;13364;49.084;9.978;2023-10-19T21:31:46;14.10;96.70
25438;DHT22;13364;49.084;9.978;2023-10-19T21:34:14;14.10;96.70
25438;DHT22;13364;49.084;9.978;2023-10-19T21:36:41;14.10;96.70
25438;DHT22;13364;49.084;9.978;2023-10-19T21:39:08;14.10;96.60
25438;DHT22;13364;49.084;9.978;2023-10-19T21:41:34;14.10;96.80
25438;DHT22;13364;49.084;9.978;2023-10-19T21:44:01;14.10;96.90
25438;DHT22;13364;49.084;9.978;2023-10-19T21:46:30;14.10;96.80
25438;DHT22;13364;49.084;9.978;2023-10-19T21:48:59;14.10;96.70
25438;DHT22;13364;49.084;9.978;2023-10-19T21:51:26;14.10;96.70
25438;DHT22;13364;49.084;9.978;2023-10-19T21:53:53;14.10;96.80
25438;DHT22;13364;49.084;9.978;2023-10-19T21:56:20;14.00;96.90
25438;DHT22;13364;49.084;9.978;2023-10-19T21:58:47;13.90;97.20
25438;DHT22;13364;49.084;9.978;2023-10-19T22:01:15;13.90;97.40
25438;DHT22;13364;49.084;9.978;2023-10-19T22:03:45;13.90;97.60
25438;DHT22;13364;49.084;9.978;2023-10-19T22:06:12;13.90;97.60
25438;DHT22;13364;49.084;9.978;2023-10-19T22:08:39;13.90;97.70
25438;DHT22;13364;49.084;9.978;2023-10-19T22:11:07;13.90;97.50
25438;DHT22;13364;49.084;9.978;2023-10-19T22:13:33;13.90;97.50
25438;DHT22;13364;49.084;9.978;2023-10-19T22:16:00;13.90;97.40
25438;DHT22;13364;49.084;9.978;2023-10-19T22:18:27;14.00;97.50
25438;DHT22;13364;49.084;9.978;2023-10-19T22:20:54;13.90;97.50
25438;DHT22;13364;49.084;9.978;2023-10-19T22:23:23;13.90;97.70
25438;DHT22;13364;49.084;9.978;2023-10-19T22:25:51;13.90;97.70
25438;DHT22;13364;49.084;9.978;2023-10-19T22:28:18;13.90;97.60
25438;DHT22;13364;49.084;9.978;2023-10-19T22:30:45;13.90;97.60
25438;DHT22;13364;49.084;9.978;2023-10-19T22:33:12;13.90;97.90
25438;DHT22;13364;49.084;9.978;2023-10-19T22:35:39;13.90;98.00
25438;DHT22;13364;49.084;9.978;2023-10-19T22:38:07;13.90;98.00
25438;DHT22;13364;49.084;9.978;2023-10-19T22:40:34;13.90;98.00
25438;DHT22;13364;49.084;9.978;2023-10-19T22:43:01;13.90;98.00
25438;DHT22;13364;49.084;9.978;2023-10-19T22:45:28;13.90;97.80
25438;DHT22;13364;49.084;9.978;2023-10-19T22:47:57;13.90;97.80
25438;DHT22;13364;49.084;9.978;2023-10-19T22:50:23;13.90;97.70
25438;DHT22;13364;49.084;9.978;2023-10-19T22:52:51;14.00;97.50
25438;DHT22;13364;49.084;9.978;2023-10-19T22:55:18;14.00;97.50
25438;DHT22;13364;49.084;9.978;2023-10-19T22:57:45;14.00;97.50
